Time;durP1;ratioP1;P1;durP2;ratioP2;P2;SDS_P1;SDS_P2;PMS_P1;PMS_P2;Temp;Humidity;BMP_temperature;BMP_pressure;BME280_temperature;BME280_humidity;BME280_pressure;Samples;Min_cycle;Max_cycle;Signal;HPM_P1;HPM_P2
2023/11/10 00:00:18;;;;;;;12.38;1.90;;;6.90;94.60;;;;;;6227578;28;20168;-85
2023/11/10 00:03:20;;;;;;;13.80;1.88;;;6.90;94.40;;;;;;6206732;28;20501;-85
2023/11/10 00:06:22;;;;;;;7.28;1.52;;;6.90;94.70;;;;;;6230225;28;20057;-86
2023/11/10 00:09:24;;;;;;;10.18;1.85;;;7.00;94.70;;;;;;6206642;28;20053;-86
2023/11/10 00:12:25;;;;;;;12.60;2.38;;;6.90;94.50;;;;;;6246486;28;20186;-86
2023/11/10 00:15:27;;;;;;;11.05;2.10;;;7.00;94.90;;;;;;6202786;28;20584;-85
2023/11/10 00:18:29;;;;;;;11.35;1.75;;;7.10;94.30;;;;;;6228587;28;20639;-83
2023/11/10 00:21:30;;;;;;;9.30;2.10;;;7.20;94.20;;;;;;6222732;28;20057;-86
2023/11/10 00:24:35;;;;;;;15.38;2.47;;;7.30;93.70;;;;;;6229344;28;20065;-86
2023/11/10 00:27:37;;;;;;;18.70;1.75;;;7.40;93.10;;;;;;6204868;28;20053;-86
2023/11/10 00:30:39;;;;;;;14.43;2.10;;;7.50;92.60;;;;;;6227392;28;20041;-85
2023/11/10 00:33:40;;;;;;;10.85;1.95;;;7.50;92.80;;;;;;6205003;28;20050;-85
2023/11/10 00:36:42;;;;;;;13.82;2.05;;;7.40;93.00;;;;;;6212345;28;20093;-86
2023/11/10 00:39:44;;;;;;;15.25;2.63;;;7.40;93.00;;;;;;6245497;28;20055;-84
2023/11/10 00:42:46;;;;;;;11.82;1.80;;;7.40;93.30;;;;;;6204428;28;20502;-85
2023/11/10 00:45:48;;;;;;;12.73;1.75;;;7.30;93.20;;;;;;6226772;28;20052;-85
2023/11/10 00:48:49;;;;;;;19.42;2.60;;;7.20;93.20;;;;;;6205405;28;20053;-86
2023/11/10 00:51:51;;;;;;;12.35;2.05;;;7.20;93.40;;;;;;6220388;28;20192;-86
2023/11/10 00:54:53;;;;;;;12.52;1.92;;;7.10;94.20;;;;;;6245302;28;20413;-86
2023/11/10 00:57:55;;;;;;;10.77;1.90;;;7.10;94.50;;;;;;6222845;28;20046;-85
2023/11/10 01:00:57;;;;;;;12.75;2.17;;;7.20;94.80;;;;;;6227804;28;20054;-85
2023/11/10 01:03:58;;;;;;;15.70;2.55;;;7.40;94.00;;;;;;6226179;28;20197;-85
2023/11/10 01:07:00;;;;;;;14.77;2.40;;;7.40;93.60;;;;;;6260055;28;20064;-84
2023/11/10 01:10:02;;;;;;;13.10;2.13;;;7.50;93.30;;;;;;6229217;28;20042;-85
2023/11/10 01:13:05;;;;;;;11.65;1.65;;;7.40;93.30;;;;;;6245458;28;20076;-85
2023/11/10 01:16:07;;;;;;;15.00;2.70;;;7.30;93.20;;;;;;6219849;28;20050;-85
2023/11/10 01:19:08;;;;;;;11.75;1.83;;;7.20;94.10;;;;;;6251329;28;20069;-85
2023/11/10 01:22:11;;;;;;;9.43;1.95;;;7.10;95.00;;;;;;6234734;28;20038;-85
2023/11/10 01:25:13;;;;;;;11.02;2.20;;;7.00;95.30;;;;;;6252629;28;20064;-86
2023/11/10 01:28:15;;;;;;;16.20;2.47;;;7.00;95.70;;;;;;6212787;28;20120;-85
2023/11/10 01:31:17;;;;;;;14.40;2.33;;;7.00;95.50;;;;;;6234978;28;20519;-86
2023/11/10 01:34:18;;;;;;;21.17;2.83;;;6.90;95.60;;;;;;6211068;28;20057;-87
2023/11/10 01:37:20;;;;;;;17.02;2.55;;;6.90;95.80;;;;;;6208443;28;20066;-86
2023/11/10 01:40:22;;;;;;;14.68;2.20;;;6.80;96.20;;;;;;6233491;28;20520;-86
2023/11/10 01:43:24;;;;;;;12.25;2.17;;;6.80;96.30;;;;;;6213219;28;20460;-86
2023/11/10 01:46:27;;;;;;;14.23;2.30;;;6.80;97.10;;;;;;6251667;28;20501;-86
2023/11/10 01:49:28;;;;;;;14.50;2.55;;;6.90;96.50;;;;;;6210175;28;20042;-86
2023/11/10 01:52:31;;;;;;;17.02;2.78;;;6.90;97.10;;;;;;6250365;28;20054;-85
2023/11/10 01:55:32;;;;;;;18.50;2.45;;;6.90;97.10;;;;;;6208970;28;20054;-85
2023/11/10 01:58:34;;;;;;;23.35;2.83;;;6.90;97.40;;;;;;6241178;28;20401;-85
2023/11/10 02:01:36;;;;;;;15.13;2.50;;;7.00;97.30;;;;;;6206984;28;20637;-85
2023/11/10 02:04:38;;;;;;;12.68;2.42;;;6.90;97.20;;;;;;6248624;28;20061;-85
2023/11/10 02:07:40;;;;;;;15.73;2.25;;;6.90;97.40;;;;;;6207736;28;20168;-85
2023/11/10 02:10:41;;;;;;;12.82;2.15;;;6.90;97.40;;;;;;6230658;28;20056;-85
2023/11/10 02:13:43;;;;;;;18.85;2.65;;;7.00;97.50;;;;;;6214072;28;20439;-85
2023/11/10 02:16:45;;;;;;;18.85;2.42;;;6.90;97.40;;;;;;6230601;28;20489;-85
2023/11/10 02:19:46;;;;;;;19.23;2.88;;;6.90;97.60;;;;;;6206400;28;20062;-85
2023/11/10 02:22:48;;;;;;;14.48;2.13;;;6.90;98.00;;;;;;6230460;28;20053;-84
2023/11/10 02:25:52;;;;;;;16.45;2.80;;;7.00;97.50;;;;;;6206327;28;20058;-85
2023/11/10 02:28:54;;;;;;;20.52;2.53;;;7.10;97.80;;;;;;6216090;28;20042;-85
2023/11/10 02:31:56;;;;;;;21.60;2.60;;;7.10;97.50;;;;;;6229688;28;20520;-85
2023/11/10 02:34:57;;;;;;;18.73;2.90;;;7.10;97.60;;;;;;6209587;28;20408;-85
2023/11/10 02:37:59;;;;;;;19.50;2.65;;;7.10;97.90;;;;;;6230698;28;20064;-85
2023/11/10 02:41:00;;;;;;;16.20;2.65;;;7.20;97.90;;;;;;6206120;28;20061;-86
2023/11/10 02:44:02;;;;;;;20.77;2.95;;;7.20;97.90;;;;;;6218539;28;20061;-85
2023/11/10 02:47:04;;;;;;;18.48;3.25;;;7.30;97.50;;;;;;6229551;28;20412;-84
2023/11/10 02:50:05;;;;;;;16.48;2.72;;;7.40;97.90;;;;;;6224307;28;20065;-84
2023/11/10 02:53:07;;;;;;;15.27;2.42;;;7.40;98.00;;;;;;6237253;28;20061;-87
2023/11/10 02:56:08;;;;;;;12.05;2.40;;;7.40;97.80;;;;;;6236666;28;20042;-89
2023/11/10 02:59:10;;;;;;;21.70;3.03;;;7.60;98.00;;;;;;6231052;28;20111;-88
2023/11/10 03:02:14;;;;;;;16.70;2.35;;;7.50;97.40;;;;;;6219699;28;20156;-89
2023/11/10 03:05:15;;;;;;;17.02;2.63;;;7.60;97.90;;;;;;6240985;28;20053;-89
2023/11/10 03:08:17;;;;;;;20.48;3.10;;;7.60;97.60;;;;;;6228483;28;20554;-90
2023/11/10 03:11:20;;;;;;;14.48;2.40;;;7.60;97.80;;;;;;6215773;28;20058;-89
2023/11/10 03:14:21;;;;;;;19.95;2.42;;;7.60;98.00;;;;;;6227294;28;20513;-87
2023/11/10 03:17:23;;;;;;;19.63;2.83;;;7.60;98.30;;;;;;6257686;28;20384;-89
2023/11/10 03:20:25;;;;;;;14.30;2.33;;;7.50;98.40;;;;;;6241610;28;20056;-89
2023/11/10 03:23:26;;;;;;;16.48;2.45;;;7.50;98.60;;;;;;6218059;28;20065;-88
2023/11/10 03:26:28;;;;;;;18.00;2.60;;;7.40;99.50;;;;;;6241325;28;20054;-87
2023/11/10 03:29:30;;;;;;;14.13;2.75;;;7.40;99.60;;;;;;6231994;28;20062;-87
2023/11/10 03:32:32;;;;;;;15.50;2.28;;;7.30;99.90;;;;;;6236631;28;20049;-86
2023/11/10 03:35:34;;;;;;;21.83;2.70;;;7.30;99.90;;;;;;6208733;28;20054;-89
2023/11/10 03:38:36;;;;;;;15.95;2.40;;;7.30;99.90;;;;;;6239656;28;20057;-85
2023/11/10 03:41:37;;;;;;;15.50;2.50;;;7.30;99.90;;;;;;6224599;28;20046;-90
2023/11/10 03:44:39;;;;;;;17.08;2.55;;;7.40;99.90;;;;;;6221948;28;20053;-89
2023/11/10 03:47:41;;;;;;;19.25;2.70;;;7.50;99.90;;;;;;6232225;28;20068;-85
2023/11/10 03:50:45;;;;;;;15.15;2.30;;;7.60;99.90;;;;;;6226759;28;20133;-87
2023/11/10 03:53:47;;;;;;;19.60;2.30;;;7.60;99.90;;;;;;6235445;28;20400;-89
2023/11/10 03:56:49;;;;;;;16.27;2.35;;;7.60;99.90;;;;;;6226287;28;20053;-89
2023/11/10 03:59:51;;;;;;;18.65;2.72;;;7.50;99.90;;;;;;6232338;28;20064;-89
2023/11/10 04:02:52;;;;;;;22.05;2.42;;;7.50;99.90;;;;;;6212317;28;20100;-89
2023/11/10 04:05:54;;;;;;;19.65;2.38;;;7.50;99.90;;;;;;6232179;28;20061;-88
2023/11/10 04:08:56;;;;;;;14.50;2.50;;;7.40;99.90;;;;;;6209161;28;20139;-88
2023/11/10 04:11:58;;;;;;;12.88;2.08;;;7.40;99.90;;;;;;6252991;28;20054;-89
2023/11/10 04:14:59;;;;;;;18.48;2.40;;;7.30;99.90;;;;;;6208669;28;20049;-88
2023/11/10 04:18:01;;;;;;;15.23;2.47;;;7.30;99.90;;;;;;6247378;28;20064;-88
2023/11/10 04:21:03;;;;;;;14.13;2.45;;;7.30;99.90;;;;;;6218208;28;20057;-88
2023/11/10 04:24:05;;;;;;;12.38;2.20;;;7.20;99.90;;;;;;6252248;28;20057;-87
2023/11/10 04:27:06;;;;;;;17.83;2.70;;;7.30;99.90;;;;;;6246931;28;20065;-87
2023/11/10 04:30:08;;;;;;;20.42;2.80;;;7.20;99.90;;;;;;6251335;28;20049;-89
2023/11/10 04:33:10;;;;;;;15.48;2.22;;;7.30;99.90;;;;;;6227582;28;20587;-89
2023/11/10 04:36:12;;;;;;;13.98;2.65;;;7.30;99.90;;;;;;6237327;28;20054;-88
2023/11/10 04:39:15;;;;;;;14.40;2.53;;;7.30;99.90;;;;;;6208608;28;20056;-88
2023/11/10 04:42:16;;;;;;;14.25;2.47;;;7.30;99.90;;;;;;6231352;28;20061;-88
2023/11/10 04:45:18;;;;;;;15.85;2.60;;;7.30;99.90;;;;;;6205811;28;20049;-89
2023/11/10 04:48:20;;;;;;;18.73;2.80;;;7.30;99.90;;;;;;6230783;28;20057;-89
2023/11/10 04:51:21;;;;;;;12.23;1.80;;;7.30;99.90;;;;;;6231338;28;20512;-88
2023/11/10 04:54:23;;;;;;;14.95;2.10;;;7.40;99.90;;;;;;6208198;28;20061;-88
2023/11/10 04:57:26;;;;;;;12.55;2.15;;;7.40;99.90;;;;;;6231243;28;20408;-88
2023/11/10 05:00:28;;;;;;;12.40;2.20;;;7.40;99.90;;;;;;6238982;28;20501;-90
2023/11/10 05:03:31;;;;;;;15.10;2.25;;;7.40;99.90;;;;;;6221775;28;20064;-89
2023/11/10 05:06:32;;;;;;;16.60;2.30;;;7.50;99.90;;;;;;6228303;28;20049;-89
2023/11/10 05:09:34;;;;;;;14.73;2.45;;;7.50;99.90;;;;;;6237746;28;20053;-88
2023/11/10 05:12:37;;;;;;;10.60;1.80;;;7.50;99.90;;;;;;6209094;28;20049;-89
2023/11/10 05:15:38;;;;;;;9.85;1.77;;;7.70;99.90;;;;;;6247037;28;20448;-88
2023/11/10 05:18:40;;;;;;;9.73;1.75;;;7.60;99.90;;;;;;6207234;28;20658;-88
2023/11/10 05:21:45;;;;;;;8.68;1.55;;;7.70;99.80;;;;;;6247434;28;20119;-89
2023/11/10 05:24:46;;;;;;;9.85;1.30;;;7.80;99.30;;;;;;6207214;28;20065;-88
2023/11/10 05:27:49;;;;;;;6.88;1.17;;;7.90;97.80;;;;;;6230242;28;20135;-82
2023/11/10 05:30:50;;;;;;;4.88;0.93;;;8.00;96.50;;;;;;6219579;28;20089;-87
2023/11/10 05:33:55;;;;;;;5.28;0.98;;;8.10;95.80;;;;;;6219856;28;20060;-86
2023/11/10 05:36:57;;;;;;;4.47;0.90;;;8.20;94.60;;;;;;6220031;28;20490;-86
2023/11/10 05:39:59;;;;;;;3.17;0.60;;;8.20;94.40;;;;;;6243786;28;20818;-87
2023/11/10 05:43:01;;;;;;;3.35;0.70;;;8.20;94.20;;;;;;6204508;28;20062;-88
2023/11/10 05:46:03;;;;;;;5.30;0.60;;;8.20;94.40;;;;;;6244992;28;20049;-86
2023/11/10 05:49:08;;;;;;;3.30;0.43;;;8.30;93.40;;;;;;6221810;28;20379;-87
2023/11/10 05:52:10;;;;;;;2.70;0.50;;;8.30;93.40;;;;;;6219375;28;20413;-86
2023/11/10 05:55:12;;;;;;;1.90;0.50;;;8.20;93.40;;;;;;6249440;28;20489;-85
2023/11/10 05:58:13;;;;;;;1.92;0.52;;;8.20;93.40;;;;;;6210039;28;20405;-86
2023/11/10 06:01:15;;;;;;;3.08;0.50;;;8.20;94.00;;;;;;6249659;28;20100;-87
2023/11/10 06:04:18;;;;;;;2.15;0.45;;;8.20;93.80;;;;;;6226655;28;20058;-86
2023/11/10 06:07:32;;;;;;;2.70;0.70;;;8.20;94.10;;;;;;6220462;28;20053;-85
2023/11/10 06:10:34;;;;;;;2.10;0.50;;;8.10;94.40;;;;;;6231612;28;20064;-86
2023/11/10 06:13:35;;;;;;;2.65;0.70;;;8.10;94.70;;;;;;6229519;28;20045;-85
2023/11/10 06:16:37;;;;;;;1.80;0.52;;;8.00;95.20;;;;;;6249362;28;20064;-86
2023/11/10 06:19:39;;;;;;;1.75;0.50;;;7.90;95.50;;;;;;6206979;28;20140;-85
2023/11/10 06:22:40;;;;;;;1.50;0.50;;;7.90;95.50;;;;;;6230185;28;20060;-84
2023/11/10 06:25:42;;;;;;;1.55;0.50;;;7.80;95.60;;;;;;6225070;28;20053;-86
2023/11/10 06:28:44;;;;;;;1.13;0.40;;;7.80;95.90;;;;;;6239680;28;20058;-86
2023/11/10 06:31:46;;;;;;;1.15;0.40;;;7.70;96.40;;;;;;6224844;28;20057;-85
2023/11/10 06:34:48;;;;;;;1.63;0.40;;;7.60;96.80;;;;;;6230810;28;20416;-86
2023/11/10 06:37:50;;;;;;;1.83;0.50;;;7.60;97.20;;;;;;6207266;28;20057;-86
2023/11/10 06:40:53;;;;;;;1.35;0.43;;;7.50;97.60;;;;;;6252391;28;20120;-85
2023/11/10 06:43:55;;;;;;;1.38;0.40;;;7.50;97.60;;;;;;6216728;28;20053;-87
2023/11/10 06:46:57;;;;;;;2.55;0.40;;;7.50;97.60;;;;;;6207486;28;20077;-86
2023/11/10 06:49:59;;;;;;;3.97;0.60;;;7.40;98.10;;;;;;6248781;28;20049;-85
2023/11/10 06:53:01;;;;;;;3.50;0.40;;;7.30;98.50;;;;;;6224757;28;20050;-86
2023/11/10 06:56:03;;;;;;;1.58;0.60;;;7.30;98.50;;;;;;6231571;28;20517;-86
2023/11/10 06:59:06;;;;;;;3.35;0.60;;;7.20;98.90;;;;;;6233919;28;20512;-86
2023/11/10 07:02:09;;;;;;;1.33;0.50;;;7.20;98.90;;;;;;6208069;28;20179;-85
2023/11/10 07:05:11;;;;;;;3.05;0.70;;;7.20;99.70;;;;;;6229719;28;20493;-86
2023/11/10 07:08:13;;;;;;;2.95;0.68;;;7.20;99.90;;;;;;6223614;28;20180;-87
2023/11/10 07:11:15;;;;;;;5.05;0.70;;;7.10;99.90;;;;;;6224709;28;20417;-84
2023/11/10 07:14:16;;;;;;;4.90;0.80;;;7.20;99.90;;;;;;6216462;28;20062;-89
2023/11/10 07:17:18;;;;;;;3.95;0.90;;;7.20;99.90;;;;;;6230157;28;20057;-85
2023/11/10 07:20:21;;;;;;;4.00;0.80;;;7.20;99.90;;;;;;6229924;28;20053;-86
2023/11/10 07:23:22;;;;;;;4.35;0.80;;;7.20;99.90;;;;;;6206483;28;20426;-85
2023/11/10 07:26:24;;;;;;;6.78;0.88;;;7.10;99.90;;;;;;6228642;28;20061;-87
2023/11/10 07:29:26;;;;;;;4.97;0.95;;;7.20;99.90;;;;;;6214200;28;20552;-84
2023/11/10 07:32:30;;;;;;;5.28;0.90;;;7.20;99.90;;;;;;6231050;28;20493;-86
2023/11/10 07:35:32;;;;;;;5.90;1.05;;;7.30;99.90;;;;;;6208745;28;20057;-85
2023/11/10 07:38:35;;;;;;;5.57;1.38;;;7.40;99.90;;;;;;6230719;28;20060;-85
2023/11/10 07:41:36;;;;;;;6.85;1.02;;;7.40;99.90;;;;;;6204702;28;20046;-85
2023/11/10 07:44:38;;;;;;;4.38;0.98;;;7.40;99.90;;;;;;6246556;28;20057;-84
2023/11/10 07:47:39;;;;;;;7.40;1.05;;;7.40;99.90;;;;;;6222569;28;20114;-85
2023/11/10 07:50:41;;;;;;;4.72;0.90;;;7.40;99.90;;;;;;6245985;28;20064;-86
2023/11/10 07:53:43;;;;;;;8.10;1.17;;;7.60;99.90;;;;;;6224806;28;20046;-86
2023/11/10 07:56:44;;;;;;;6.65;1.40;;;7.60;99.90;;;;;;6247460;28;20057;-87
2023/11/10 07:59:46;;;;;;;6.78;1.10;;;7.70;99.60;;;;;;6219492;28;20072;-86
2023/11/10 08:02:51;;;;;;;12.85;1.38;;;7.70;99.60;;;;;;6208050;28;20076;-86
2023/11/10 08:05:54;;;;;;;6.22;0.93;;;7.80;99.40;;;;;;6206638;28;20054;-87
2023/11/10 08:08:56;;;;;;;7.82;1.30;;;8.00;98.60;;;;;;6220891;28;20054;-85
2023/11/10 08:11:57;;;;;;;7.28;1.00;;;8.20;98.50;;;;;;6230074;28;20054;-87
2023/11/10 08:14:59;;;;;;;5.53;1.00;;;8.30;97.60;;;;;;6204949;28;20065;-86
2023/11/10 08:18:01;;;;;;;6.43;0.90;;;8.60;97.50;;;;;;6233517;28;20057;-86
2023/11/10 08:21:02;;;;;;;4.00;1.35;;;8.90;95.70;;;;;;6206096;28;20061;-87
2023/11/10 08:24:04;;;;;;;3.28;0.77;;;9.10;95.50;;;;;;6231168;28;20057;-87
2023/11/10 08:27:10;;;;;;;5.35;1.05;;;9.30;93.60;;;;;;6226218;28;20054;-87
2023/11/10 08:30:13;;;;;;;8.90;1.15;;;9.40;93.60;;;;;;6233931;28;20045;-87
2023/11/10 08:33:15;;;;;;;8.00;1.65;;;9.50;93.20;;;;;;6209950;28;20409;-86
2023/11/10 08:36:18;;;;;;;4.72;0.90;;;9.50;92.90;;;;;;6221381;28;20070;-87
2023/11/10 08:39:20;;;;;;;11.60;1.65;;;9.60;92.30;;;;;;6227824;28;20079;-85
2023/11/10 08:42:22;;;;;;;5.15;1.00;;;9.60;92.80;;;;;;6205649;28;20057;-85
2023/11/10 08:45:24;;;;;;;6.00;1.10;;;9.60;93.70;;;;;;6250923;28;20191;-87
2023/11/10 08:48:26;;;;;;;7.45;1.25;;;9.70;92.70;;;;;;6207513;28;20054;-82
2023/11/10 08:51:28;;;;;;;5.70;0.93;;;9.80;91.70;;;;;;6224645;28;20057;-82
2023/11/10 08:54:33;;;;;;;9.68;1.70;;;9.80;91.10;;;;;;6203395;28;20577;-84
2023/11/10 08:57:38;;;;;;;7.20;1.00;;;9.90;91.90;;;;;;6233642;28;20096;-87
2023/11/10 09:00:40;;;;;;;4.95;0.90;;;10.00;90.00;;;;;;6203921;28;20077;-88
2023/11/10 09:03:42;;;;;;;5.78;1.00;;;10.10;88.60;;;;;;6228427;28;20085;-88
2023/11/10 09:06:43;;;;;;;6.72;1.60;;;10.30;86.00;;;;;;6203185;28;20156;-87
2023/11/10 09:09:45;;;;;;;5.97;1.08;;;10.60;89.30;;;;;;6202845;28;20676;-87
2023/11/10 09:12:48;;;;;;;6.07;1.10;;;11.00;76.80;;;;;;6225594;28;20065;-87
2023/11/10 09:15:50;;;;;;;7.60;1.67;;;11.10;77.20;;;;;;6200473;28;20053;-87
2023/11/10 09:19:02;;;;;;;6.45;0.80;;;11.10;77.90;;;;;;6203424;28;20573;-86
2023/11/10 09:22:04;;;;;;;6.47;1.00;;;11.10;80.50;;;;;;6217280;28;20115;-87
2023/11/10 09:25:09;;;;;;;19.60;2.10;;;11.00;80.00;;;;;;6242568;28;20061;-86
2023/11/10 09:28:11;;;;;;;9.35;1.20;;;11.00;79.10;;;;;;6205645;28;20053;-85
2023/11/10 09:31:13;;;;;;;4.18;0.80;;;10.90;75.90;;;;;;6230492;28;20087;-87
2023/11/10 09:34:14;;;;;;;9.45;1.30;;;10.80;78.60;;;;;;6206249;28;20065;-86
2023/11/10 09:37:16;;;;;;;6.03;1.38;;;10.80;84.40;;;;;;6221279;28;20053;-85
2023/11/10 09:40:23;;;;;;;7.40;1.08;;;10.80;84.00;;;;;;6252365;28;20061;-91
2023/11/10 09:43:25;;;;;;;8.52;2.05;;;10.80;87.30;;;;;;6227040;28;20057;-89
2023/11/10 09:46:26;;;;;;;11.70;1.55;;;10.80;84.70;;;;;;6247520;28;20465;-91
2023/11/10 09:49:29;;;;;;;6.03;1.27;;;10.80;84.60;;;;;;6227306;28;20057;-86
2023/11/10 09:52:31;;;;;;;5.82;1.67;;;10.90;86.10;;;;;;6232807;28;20064;-85
2023/11/10 09:55:34;;;;;;;6.30;1.40;;;11.00;89.70;;;;;;6209042;28;20072;-86
2023/11/10 09:58:36;;;;;;;8.30;1.08;;;11.10;86.20;;;;;;6230065;28;20136;-87
2023/11/10 10:01:37;;;;;;;9.65;1.83;;;11.10;83.70;;;;;;6224853;28;20137;-87
2023/11/10 10:04:39;;;;;;;10.75;1.30;;;11.20;84.50;;;;;;6248884;28;20057;-86
2023/11/10 10:07:41;;;;;;;6.20;1.20;;;11.20;78.70;;;;;;6230047;28;20058;-87
2023/11/10 10:10:43;;;;;;;3.40;1.13;;;11.20;81.60;;;;;;6242166;28;20057;-86
2023/11/10 10:13:44;;;;;;;7.68;1.25;;;11.30;82.00;;;;;;6240774;28;20136;-86
2023/11/10 10:16:46;;;;;;;5.32;1.25;;;11.30;73.70;;;;;;6252740;28;20057;-86
2023/11/10 10:19:50;;;;;;;4.60;1.00;;;11.30;74.10;;;;;;6215118;28;20529;-86
2023/11/10 10:22:53;;;;;;;6.10;1.08;;;11.40;72.30;;;;;;6249015;23;20429;-93
2023/11/10 10:25:57;;;;;;;5.93;0.98;;;11.40;73.10;;;;;;6178652;28;20497;-93
2023/11/10 10:29:00;;;;;;;7.88;0.95;;;11.40;73.10;;;;;;6173297;28;20109;-93
2023/11/10 10:32:03;;;;;;;7.20;1.10;;;11.40;76.20;;;;;;6177921;28;20062;-93
2023/11/10 10:35:07;;;;;;;5.88;0.90;;;11.40;70.50;;;;;;6203026;28;20050;-94
2023/11/10 10:38:08;;;;;;;6.22;1.13;;;11.30;80.00;;;;;;6186949;28;20059;-92
2023/11/10 10:41:10;;;;;;;6.95;0.88;;;11.30;75.80;;;;;;6212160;28;20064;-95
2023/11/10 10:44:12;;;;;;;5.25;1.33;;;11.10;73.50;;;;;;6184507;28;20059;-94
2023/11/10 10:47:13;;;;;;;4.22;0.93;;;11.00;76.30;;;;;;6209962;28;20054;-95
2023/11/10 10:50:15;;;;;;;8.85;1.42;;;10.90;76.10;;;;;;6186288;28;20054;-93
2023/11/10 10:53:17;;;;;;;10.00;1.35;;;10.90;79.10;;;;;;6182215;28;20126;-95
2023/11/10 10:56:19;;;;;;;9.05;1.65;;;11.00;76.70;;;;;;6182928;28;20046;-94
2023/11/10 10:59:40;;;;;;;7.55;2.00;;;11.00;82.00;;;;;;6187109;28;20046;-93
2023/11/10 11:02:42;;;;;;;11.40;1.95;;;11.00;79.70;;;;;;6185809;28;20086;-94
2023/11/10 11:05:43;;;;;;;11.40;2.03;;;11.00;82.70;;;;;;6210808;28;20510;-94
2023/11/10 11:08:45;;;;;;;7.45;1.60;;;10.90;80.70;;;;;;6189708;28;20058;-94
2023/11/10 11:11:47;;;;;;;10.40;1.75;;;10.90;83.10;;;;;;6207221;28;20054;-94
2023/11/10 11:14:49;;;;;;;13.57;2.08;;;10.90;87.20;;;;;;6199538;28;20058;-94
2023/11/10 11:17:50;;;;;;;10.07;2.30;;;10.90;88.90;;;;;;6185107;28;20055;-94
2023/11/10 11:20:52;;;;;;;8.75;1.98;;;11.00;88.40;;;;;;6187653;28;20050;-94
2023/11/10 11:23:56;;;;;;;10.43;2.10;;;10.80;87.30;;;;;;6263561;28;20053;-94
2023/11/10 11:26:58;;;;;;;7.45;2.30;;;10.70;89.40;;;;;;6241515;28;20046;-93
2023/11/10 11:29:59;;;;;;;6.32;1.90;;;10.70;90.60;;;;;;6208927;28;20144;-92
2023/11/10 11:33:01;;;;;;;8.85;1.92;;;10.60;86.70;;;;;;6230591;28;20077;-92
2023/11/10 11:36:06;;;;;;;5.97;1.90;;;10.50;88.40;;;;;;6239256;28;20140;-95
2023/11/10 11:39:08;;;;;;;8.30;2.50;;;10.30;90.30;;;;;;6230411;28;20050;-93
2023/11/10 11:42:13;;;;;;;8.77;2.75;;;10.20;91.20;;;;;;6253507;28;20053;-93
2023/11/10 11:45:14;;;;;;;10.20;2.83;;;10.00;91.90;;;;;;6240693;28;20119;-94
2023/11/10 11:48:16;;;;;;;9.98;3.28;;;10.10;93.30;;;;;;6265054;28;20501;-93
2023/11/10 11:51:18;;;;;;;8.32;2.80;;;10.20;92.20;;;;;;6231645;28;20050;-90
2023/11/10 11:54:20;;;;;;;10.60;3.38;;;10.20;93.50;;;;;;6255230;28;20053;-94
2023/11/10 11:57:21;;;;;;;7.05;2.63;;;10.30;92.80;;;;;;6230303;28;20054;-92
2023/11/10 12:00:23;;;;;;;7.72;2.55;;;10.20;91.90;;;;;;6252398;28;20507;-93
2023/11/10 12:03:27;;;;;;;8.95;2.50;;;10.20;92.40;;;;;;6231419;28;20049;-92
2023/11/10 12:06:29;;;;;;;7.40;2.42;;;10.20;91.90;;;;;;6237485;28;20164;-94
2023/11/10 12:09:31;;;;;;;7.18;2.40;;;10.20;92.90;;;;;;6233094;28;20057;-92
2023/11/10 12:12:33;;;;;;;7.45;2.40;;;10.10;92.50;;;;;;6221828;28;20049;-93
2023/11/10 12:15:35;;;;;;;8.60;2.15;;;10.10;91.60;;;;;;6242724;28;20053;-94
2023/11/10 12:18:37;;;;;;;8.15;2.03;;;10.10;92.60;;;;;;6237765;28;20502;-90
2023/11/10 12:21:39;;;;;;;7.22;1.80;;;10.00;90.90;;;;;;6263662;28;20049;-96
2023/11/10 12:24:42;;;;;;;7.30;1.90;;;9.90;91.50;;;;;;6261620;28;20061;-93
2023/11/10 12:27:44;;;;;;;7.65;1.92;;;10.10;92.40;;;;;;6234716;28;20049;-93
2023/11/10 12:30:46;;;;;;;7.60;2.10;;;10.20;91.50;;;;;;6212401;28;20069;-93
2023/11/10 12:33:48;;;;;;;6.05;2.00;;;10.20;89.50;;;;;;6232452;28;20053;-93
2023/11/10 12:36:50;;;;;;;9.48;2.80;;;10.30;89.90;;;;;;6229102;28;20050;-93
2023/11/10 12:39:51;;;;;;;10.35;2.60;;;10.30;90.90;;;;;;6228391;28;20053;-93
2023/11/10 12:42:53;;;;;;;6.85;2.00;;;10.10;90.30;;;;;;6254200;28;20057;-85
2023/11/10 12:45:55;;;;;;;6.90;1.92;;;10.20;91.20;;;;;;6221429;28;20056;-92
2023/11/10 12:48:57;;;;;;;8.63;2.20;;;10.10;91.20;;;;;;6201269;28;20054;-91
2023/11/10 12:52:00;;;;;;;6.75;2.15;;;9.90;92.20;;;;;;6250188;28;20215;-91
2023/11/10 12:55:02;;;;;;;7.25;1.92;;;9.80;92.30;;;;;;6223908;28;20050;-92
2023/11/10 12:58:04;;;;;;;9.38;2.75;;;9.70;92.80;;;;;;6246356;28;20053;-92
2023/11/10 13:01:07;;;;;;;5.80;2.20;;;9.60;92.80;;;;;;6237113;28;20050;-94
2023/11/10 13:04:08;;;;;;;9.38;2.72;;;9.60;93.70;;;;;;6218975;28;20127;-92
2023/11/10 13:07:11;;;;;;;8.98;2.50;;;9.60;92.90;;;;;;6240742;28;20049;-90
2023/11/10 13:10:13;;;;;;;7.90;2.38;;;9.70;92.40;;;;;;6253755;28;20057;-93
2023/11/10 13:13:15;;;;;;;6.57;2.28;;;9.90;92.20;;;;;;6271832;28;20045;-91
2023/11/10 13:16:16;;;;;;;8.60;2.60;;;10.20;89.60;;;;;;6253099;28;20129;-93
2023/11/10 13:19:18;;;;;;;6.13;2.50;;;10.40;87.10;;;;;;6231217;28;20183;-93
2023/11/10 13:22:20;;;;;;;6.95;2.30;;;10.70;79.50;;;;;;6238622;28;20072;-89
2023/11/10 13:25:21;;;;;;;8.20;2.33;;;11.00;68.70;;;;;;6211370;28;20557;-90
2023/11/10 13:28:23;;;;;;;5.40;2.08;;;10.90;69.90;;;;;;6210741;28;20108;-91
2023/11/10 13:31:40;;;;;;;6.05;1.77;;;10.70;61.80;;;;;;6229807;28;20050;-91
2023/11/10 13:34:42;;;;;;;6.22;2.10;;;10.60;59.20;;;;;;6228150;28;20049;-91
2023/11/10 13:37:44;;;;;;;7.40;2.40;;;10.50;65.70;;;;;;6228956;28;20500;-89
2023/11/10 13:40:46;;;;;;;6.32;2.40;;;10.90;63.80;;;;;;6227268;28;20061;-89
2023/11/10 13:43:48;;;;;;;4.75;2.30;;;10.90;58.50;;;;;;6227998;28;20505;-93
2023/11/10 13:46:49;;;;;;;7.00;2.40;;;10.70;64.00;;;;;;6235822;28;20057;-91
2023/11/10 13:49:51;;;;;;;7.07;2.70;;;10.40;70.70;;;;;;6209368;28;20061;-88
2023/11/10 13:52:54;;;;;;;5.63;2.30;;;10.30;71.00;;;;;;6252438;28;20058;-90
2023/11/10 13:55:56;;;;;;;5.68;2.45;;;10.20;67.80;;;;;;6231075;28;20057;-89
2023/11/10 13:58:58;;;;;;;7.78;2.83;;;10.10;71.20;;;;;;6247593;28;20096;-92
2023/11/10 14:02:00;;;;;;;7.78;2.92;;;10.00;75.90;;;;;;6259017;28;20053;-90
2023/11/10 14:05:04;;;;;;;7.20;2.63;;;9.90;70.40;;;;;;6231504;28;20081;-91
2023/11/10 14:08:06;;;;;;;6.85;2.20;;;10.50;52.40;;;;;;6251327;28;20053;-93
2023/11/10 14:11:11;;;;;;;7.38;2.33;;;11.10;30.80;;;;;;6211254;28;20144;-94
2023/11/10 14:14:13;;;;;;;6.68;1.80;;;11.50;22.40;;;;;;6223167;28;20060;-95
2023/11/10 14:17:17;;;;;;;6.65;2.33;;;11.30;23.70;;;;;;6209771;28;20421;-91
2023/11/10 14:20:18;;;;;;;6.10;1.92;;;11.00;26.70;;;;;;6251830;28;20053;-93
2023/11/10 14:23:20;;;;;;;6.97;2.05;;;10.70;28.60;;;;;;6209096;28;20149;-92
2023/11/10 14:26:24;;;;;;;5.30;2.40;;;10.50;33.70;;;;;;6252357;28;20052;-91
2023/11/10 14:29:26;;;;;;;5.68;2.03;;;10.20;32.70;;;;;;6241455;28;20076;-91
2023/11/10 14:32:29;;;;;;;6.35;2.88;;;10.10;41.80;;;;;;6229987;28;20363;-92
2023/11/10 14:35:30;;;;;;;4.80;2.63;;;10.00;43.90;;;;;;6251379;28;20049;-92
2023/11/10 14:38:32;;;;;;;8.50;3.05;;;9.90;55.90;;;;;;6226823;28;20054;-92
2023/11/10 14:41:51;;;;;;;7.07;3.60;;;9.90;57.80;;;;;;6202353;28;20482;-92
2023/11/10 14:44:53;;;;;;;8.15;3.72;;;9.90;60.00;;;;;;6231217;28;20057;-92
2023/11/10 14:47:55;;;;;;;9.07;3.97;;;9.80;63.50;;;;;;6226442;28;20485;-91
2023/11/10 14:50:57;;;;;;;8.45;3.70;;;9.70;67.60;;;;;;6247986;28;20061;-91
2023/11/10 14:53:59;;;;;;;9.35;3.92;;;9.70;65.80;;;;;;6225915;28;20498;-91
2023/11/10 14:57:00;;;;;;;9.38;4.35;;;9.80;66.20;;;;;;6249488;28;20057;-91
2023/11/10 15:00:03;;;;;;;9.50;4.13;;;9.80;68.30;;;;;;6224839;28;20065;-89
2023/11/10 15:03:04;;;;;;;7.45;3.53;;;9.70;68.10;;;;;;6248764;28;20058;-84
2023/11/10 15:06:15;;;;;;;10.32;4.22;;;9.80;70.20;;;;;;6208200;28;20633;-87
2023/11/10 15:09:17;;;;;;;8.77;4.30;;;9.80;68.50;;;;;;6208373;28;20201;-87
2023/11/10 15:12:18;;;;;;;11.15;4.60;;;9.70;68.20;;;;;;6253151;28;20053;-88
2023/11/10 15:15:21;;;;;;;7.78;3.58;;;9.80;73.10;;;;;;6227426;28;20050;-87
2023/11/10 15:18:23;;;;;;;8.38;3.80;;;9.70;68.10;;;;;;6233202;28;20477;-88
2023/11/10 15:21:26;;;;;;;10.00;3.40;;;9.70;60.90;;;;;;6226212;28;20064;-87
2023/11/10 15:24:28;;;;;;;8.70;3.08;;;9.80;57.50;;;;;;6236804;28;20049;-89
2023/11/10 15:27:29;;;;;;;7.22;2.60;;;9.80;55.00;;;;;;6207082;28;20050;-87
2023/11/10 15:30:35;;;;;;;4.40;2.20;;;9.70;44.20;;;;;;6244862;28;20060;-88
2023/11/10 15:33:38;;;;;;;5.28;2.17;;;9.70;35.10;;;;;;6198949;28;20086;-86
2023/11/10 15:36:50;;;;;;;5.68;2.00;;;9.60;33.00;;;;;;6247799;28;20061;-89
2023/11/10 15:39:52;;;;;;;4.78;2.20;;;9.60;32.70;;;;;;6201214;28;20046;-88
2023/11/10 15:42:54;;;;;;;5.15;2.00;;;9.50;30.50;;;;;;6246039;28;20535;-89
2023/11/10 15:45:57;;;;;;;3.83;1.70;;;9.50;33.50;;;;;;6222125;28;20058;-91
2023/11/10 15:48:59;;;;;;;5.55;2.20;;;9.40;31.10;;;;;;6223225;28;20116;-90
2023/11/10 15:52:01;;;;;;;4.82;2.00;;;9.40;31.60;;;;;;6247043;28;20052;-89